Time;durP1;ratioP1;P1;durP2;ratioP2;P2;SDS_P1;SDS_P2;PMS_P1;PMS_P2;Temp;Humidity;BMP_temperature;BMP_pressure;BME280_temperature;BME280_humidity;BME280_pressure;Samples;Min_cycle;Max_cycle;Signal;HPM_P1;HPM_P2
2023/06/27 00:01:39;;;;;;;;;;;;;;;15.86;100.00;98738.63;105924;1253;68504;-77
2023/06/27 00:04:07;;;;;;;;;;;;;;;15.88;100.00;98738.19;105902;1257;72549;-76
2023/06/27 00:06:41;;;;;;;;;;;;;;;15.99;100.00;98737.90;105953;1257;61577;-76
2023/06/27 00:09:09;;;;;;;;;;;;;;;15.96;100.00;98736.81;105902;1253;61293;-76
2023/06/27 00:11:40;;;;;;;;;;;;;;;15.81;100.00;98732.89;105862;1257;73469;-77
2023/06/27 00:14:08;;;;;;;;;;;;;;;15.82;100.00;98730.29;105858;1257;68275;-77
2023/06/27 00:16:36;;;;;;;;;;;;;;;15.99;100.00;98729.79;105844;1253;72597;-77
2023/06/27 00:19:04;;;;;;;;;;;;;;;15.88;100.00;98729.52;105898;1253;61247;-77
2023/06/27 00:21:31;;;;;;;;;;;;;;;15.68;100.00;98731.47;105805;1254;61233;-77
2023/06/27 00:23:59;;;;;;;;;;;;;;;15.72;100.00;98735.63;105923;1254;72444;-76
2023/06/27 00:26:27;;;;;;;;;;;;;;;15.81;100.00;98733.34;105908;1253;68381;-76
2023/06/27 00:28:55;;;;;;;;;;;;;;;15.85;100.00;98731.23;105897;1256;71733;-77
2023/06/27 00:31:22;;;;;;;;;;;;;;;15.85;100.00;98732.85;106129;1251;61624;-77
2023/06/27 00:33:50;;;;;;;;;;;;;;;15.84;100.00;98733.33;106178;1251;61371;-77
2023/06/27 00:36:19;;;;;;;;;;;;;;;15.77;100.00;98734.30;106198;1254;74496;-76
2023/06/27 00:38:47;;;;;;;;;;;;;;;15.67;100.00;98727.02;106181;1251;68099;-77
2023/06/27 00:41:14;;;;;;;;;;;;;;;15.57;100.00;98730.52;106040;1254;72226;-77
2023/06/27 00:43:42;;;;;;;;;;;;;;;15.47;100.00;98724.97;106994;1251;62304;-75
2023/06/27 00:46:10;;;;;;;;;;;;;;;15.78;100.00;98724.81;109072;1251;59070;-76
2023/06/27 00:48:38;;;;;;;;;;;;;;;16.09;100.00;98731.12;107241;1251;73466;-78
2023/06/27 00:51:07;;;;;;;;;;;;;;;16.09;100.00;98735.16;105930;1251;68500;-76
2023/06/27 00:53:35;;;;;;;;;;;;;;;16.01;100.00;98737.38;105888;1251;73017;-75
2023/06/27 00:56:02;;;;;;;;;;;;;;;15.78;100.00;98735.13;106115;1256;61218;-77
2023/06/27 00:58:31;;;;;;;;;;;;;;;15.90;100.00;98732.48;106100;1251;61377;-77
2023/06/27 01:01:00;;;;;;;;;;;;;;;15.42;100.00;98730.75;105866;1251;74564;-76
2023/06/27 01:03:32;;;;;;;;;;;;;;;15.16;100.00;98727.66;106216;1257;67602;-76
2023/06/27 01:06:04;;;;;;;;;;;;;;;15.19;100.00;98725.88;106160;1256;72219;-75
2023/06/27 01:08:34;;;;;;;;;;;;;;;15.20;100.00;98725.10;106175;1251;61154;-76
2023/06/27 01:11:03;;;;;;;;;;;;;;;15.24;100.00;98720.84;106291;1251;61366;-78
2023/06/27 01:13:49;;;;;;;;;;;;;;;15.27;100.00;98721.09;106281;1257;74614;-76
2023/06/27 01:16:19;;;;;;;;;;;;;;;15.36;100.00;98721.53;106104;1251;68673;-76
2023/06/27 01:18:46;;;;;;;;;;;;;;;15.34;100.00;98719.26;105987;1252;72619;-76
2023/06/27 01:21:15;;;;;;;;;;;;;;;15.24;100.00;98716.99;106119;1253;61676;-76
2023/06/27 01:23:55;;;;;;;;;;;;;;;15.20;100.00;98721.85;106181;1251;61297;-76
2023/06/27 01:26:23;;;;;;;;;;;;;;;15.19;100.00;98715.98;106218;1251;74536;-76
2023/06/27 01:28:50;;;;;;;;;;;;;;;15.12;100.00;98717.48;105767;1253;68347;-79
2023/06/27 01:31:36;;;;;;;;;;;;;;;15.27;100.00;98720.05;106052;1253;72744;-77
2023/06/27 01:34:05;;;;;;;;;;;;;;;15.07;100.00;98718.61;105889;1253;61686;-76
2023/06/27 01:36:41;;;;;;;;;;;;;;;15.43;100.00;98711.70;105888;1257;61166;-76
2023/06/27 01:39:10;;;;;;;;;;;;;;;15.26;100.00;98710.58;105827;1252;74463;-77
2023/06/27 01:41:38;;;;;;;;;;;;;;;15.23;100.00;98709.60;105846;1254;67696;-77
2023/06/27 01:44:06;;;;;;;;;;;;;;;15.28;100.00;98711.06;105959;1257;71560;-76
2023/06/27 01:46:33;;;;;;;;;;;;;;;15.38;100.00;98708.75;105924;1253;62061;-76
2023/06/27 01:49:01;;;;;;;;;;;;;;;15.38;100.00;98709.65;105911;1253;61369;-77
2023/06/27 01:51:29;;;;;;;;;;;;;;;15.26;100.00;98701.39;105913;1253;73468;-76
2023/06/27 01:53:57;;;;;;;;;;;;;;;15.35;100.00;98702.91;105890;1257;67135;-75
2023/06/27 01:56:24;;;;;;;;;;;;;;;15.39;100.00;98703.85;105908;1253;73457;-76
2023/06/27 01:58:53;;;;;;;;;;;;;;;15.32;100.00;98703.48;105905;1255;61256;-75
2023/06/27 02:01:20;;;;;;;;;;;;;;;15.43;100.00;98703.42;105897;1253;62190;-76
2023/06/27 02:03:48;;;;;;;;;;;;;;;15.40;100.00;98698.61;105899;1253;73446;-76
2023/06/27 02:06:15;;;;;;;;;;;;;;;15.35;100.00;98691.98;105906;1253;68273;-76
2023/06/27 02:08:43;;;;;;;;;;;;;;;15.31;100.00;98691.77;105923;1257;71278;-75
2023/06/27 02:11:10;;;;;;;;;;;;;;;15.38;100.00;98693.63;105849;1257;61300;-75
2023/06/27 02:13:42;;;;;;;;;;;;;;;15.44;100.00;98693.92;105944;1253;61282;-76
2023/06/27 02:16:11;;;;;;;;;;;;;;;15.35;100.00;98695.13;105870;1257;74868;-81
2023/06/27 02:18:38;;;;;;;;;;;;;;;15.54;100.00;98694.19;105873;1253;68583;-80
2023/06/27 02:21:06;;;;;;;;;;;;;;;15.63;100.00;98699.98;105827;1256;71395;-77
2023/06/27 02:23:35;;;;;;;;;;;;;;;15.64;100.00;98710.79;105762;1254;61219;-76
2023/06/27 02:26:03;;;;;;;;;;;;;;;15.49;100.00;98709.61;105836;1255;61343;-76
2023/06/27 02:28:31;;;;;;;;;;;;;;;15.51;100.00;98707.67;105857;1256;74635;-74
2023/06/27 02:30:58;;;;;;;;;;;;;;;15.51;100.00;98707.03;105918;1254;68381;-77
2023/06/27 02:33:26;;;;;;;;;;;;;;;15.57;100.00;98703.70;105900;1254;71344;-76
2023/06/27 02:35:53;;;;;;;;;;;;;;;15.79;100.00;98700.43;105825;1258;61389;-76
2023/06/27 02:38:21;;;;;;;;;;;;;;;15.75;100.00;98704.13;106011;1261;61231;-76
2023/06/27 02:40:48;;;;;;;;;;;;;;;15.86;100.00;98707.39;105703;1261;74509;-76
2023/06/27 02:43:16;;;;;;;;;;;;;;;16.01;100.00;98707.98;105847;1254;68452;-76
2023/06/27 02:45:43;;;;;;;;;;;;;;;15.89;100.00;98708.79;105745;1261;72609;-75
2023/06/27 02:48:11;;;;;;;;;;;;;;;15.95;100.00;98705.53;105801;1256;61640;-76
2023/06/27 02:50:38;;;;;;;;;;;;;;;15.96;100.00;98703.90;105835;1254;61300;-74
2023/06/27 02:53:06;;;;;;;;;;;;;;;16.14;100.00;98703.66;105731;1255;73387;-77
2023/06/27 02:55:34;;;;;;;;;;;;;;;16.29;100.00;98705.59;105892;1253;68633;-76
2023/06/27 02:58:01;;;;;;;;;;;;;;;16.24;100.00;98697.21;105907;1253;72303;-77
2023/06/27 03:00:29;;;;;;;;;;;;;;;16.48;100.00;98698.36;105872;1256;61379;-76
2023/06/27 03:02:57;;;;;;;;;;;;;;;16.78;100.00;98693.40;105828;1253;61409;-79
2023/06/27 03:05:25;;;;;;;;;;;;;;;16.84;100.00;98689.59;105628;1264;74541;-81
2023/06/27 03:07:53;;;;;;;;;;;;;;;16.97;100.00;98688.16;105813;1258;68651;-76
2023/06/27 03:10:21;;;;;;;;;;;;;;;16.90;100.00;98683.84;105904;1257;71529;-76
2023/06/27 03:12:49;;;;;;;;;;;;;;;17.20;100.00;98687.91;105922;1257;61219;-74
2023/06/27 03:15:16;;;;;;;;;;;;;;;17.30;100.00;98687.02;105862;1253;61295;-75
2023/06/27 03:17:44;;;;;;;;;;;;;;;17.28;100.00;98688.30;105894;1253;73411;-76
2023/06/27 03:20:11;;;;;;;;;;;;;;;17.57;100.00;98690.36;105983;1257;67232;-75
2023/06/27 03:22:39;;;;;;;;;;;;;;;17.73;100.00;98688.20;105957;1258;72776;-75
2023/06/27 03:25:10;;;;;;;;;;;;;;;18.09;100.00;98690.84;105732;1253;61537;-78
2023/06/27 03:27:38;;;;;;;;;;;;;;;18.23;100.00;98689.40;105957;1256;61225;-76
2023/06/27 03:30:07;;;;;;;;;;;;;;;18.46;100.00;98693.89;105847;1258;73374;-75
2023/06/27 03:32:35;;;;;;;;;;;;;;;18.56;100.00;98695.75;105921;1253;67613;-77
2023/06/27 03:35:03;;;;;;;;;;;;;;;18.66;100.00;98693.85;105909;1257;71467;-78
2023/06/27 03:37:33;;;;;;;;;;;;;;;18.73;100.00;98692.80;106124;1256;61226;-77
2023/06/27 03:40:02;;;;;;;;;;;;;;;18.65;100.00;98694.02;106289;1253;61270;-76
2023/06/27 03:42:29;;;;;;;;;;;;;;;18.60;100.00;98699.66;106054;1253;73400;-79
2023/06/27 03:44:57;;;;;;;;;;;;;;;18.77;100.00;98700.44;105908;1253;68491;-78
2023/06/27 03:47:24;;;;;;;;;;;;;;;19.05;100.00;98695.74;105869;1254;72604;-79
2023/06/27 03:49:53;;;;;;;;;;;;;;;19.27;100.00;98695.71;106054;1256;61301;-78
2023/06/27 03:52:20;;;;;;;;;;;;;;;19.50;100.00;98696.39;109220;1252;60156;-77
2023/06/27 03:54:48;;;;;;;;;;;;;;;19.74;100.00;98692.78;107975;1254;74625;-81
2023/06/27 03:57:16;;;;;;;;;;;;;;;20.02;100.00;98686.58;105922;1253;68270;-83
2023/06/27 03:59:44;;;;;;;;;;;;;;;20.23;100.00;98686.64;105825;1253;72686;-78
2023/06/27 04:02:11;;;;;;;;;;;;;;;20.38;100.00;98687.30;105914;1253;61605;-77
2023/06/27 04:04:39;;;;;;;;;;;;;;;20.46;100.00;98681.08;105946;1253;61288;-76
2023/06/27 04:07:07;;;;;;;;;;;;;;;20.64;100.00;98685.35;105834;1253;73482;-78
2023/06/27 04:09:35;;;;;;;;;;;;;;;20.54;100.00;98683.45;105834;1253;68423;-78
2023/06/27 04:12:04;;;;;;;;;;;;;;;20.40;100.00;98684.55;105870;1257;71478;-81
2023/06/27 04:14:32;;;;;;;;;;;;;;;20.33;100.00;98685.36;105831;1257;61267;-76
2023/06/27 04:16:59;;;;;;;;;;;;;;;20.31;100.00;98686.45;105902;1254;61223;-78
2023/06/27 04:19:27;;;;;;;;;;;;;;;20.42;100.00;98684.61;105898;1253;74598;-79
2023/06/27 04:21:54;;;;;;;;;;;;;;;20.47;100.00;98688.52;105885;1253;69054;-79
2023/06/27 04:24:22;;;;;;;;;;;;;;;20.98;100.00;98692.70;105937;1257;72611;-78
2023/06/27 04:26:49;;;;;;;;;;;;;;;21.46;98.61;98698.09;105975;1252;61654;-77
2023/06/27 04:29:17;;;;;;;;;;;;;;;22.44;88.72;98703.73;105809;1253;61318;-82
2023/06/27 04:31:44;;;;;;;;;;;;;;;23.02;82.23;98707.52;106040;1256;74577;-78
2023/06/27 04:34:12;;;;;;;;;;;;;;;22.78;78.52;98716.11;105993;1253;68270;-78
2023/06/27 04:36:41;;;;;;;;;;;;;;;22.74;78.40;98716.35;105939;1253;72467;-77
2023/06/27 04:39:09;;;;;;;;;;;;;;;22.34;77.55;98711.84;105898;1257;61218;-78
2023/06/27 04:41:36;;;;;;;;;;;;;;;22.48;76.08;98706.27;105849;1253;61347;-79
2023/06/27 04:44:04;;;;;;;;;;;;;;;22.41;78.22;98709.46;105852;1253;73937;-77
2023/06/27 04:46:32;;;;;;;;;;;;;;;22.36;80.01;98714.64;105922;1257;67598;-78
2023/06/27 04:49:00;;;;;;;;;;;;;;;22.45;77.29;98712.44;105937;1253;72250;-77
2023/06/27 04:51:28;;;;;;;;;;;;;;;22.52;77.53;98713.38;105978;1254;61304;-76
2023/06/27 04:53:56;;;;;;;;;;;;;;;22.99;74.96;98716.84;106013;1253;61364;-80
2023/06/27 04:56:23;;;;;;;;;;;;;;;23.18;72.27;98715.65;106050;1253;74502;-78
2023/06/27 04:58:51;;;;;;;;;;;;;;;23.33;73.40;98711.88;105919;1253;68277;-79
2023/06/27 05:01:19;;;;;;;;;;;;;;;23.58;70.08;98713.65;106036;1253;71412;-78
2023/06/27 05:03:46;;;;;;;;;;;;;;;23.77;66.87;98713.40;105867;1257;61225;-78
2023/06/27 05:06:14;;;;;;;;;;;;;;;23.95;66.63;98713.05;105891;1258;61174;-78
2023/06/27 05:08:42;;;;;;;;;;;;;;;24.13;63.63;98718.23;106055;1253;73371;-77
2023/06/27 05:11:09;;;;;;;;;;;;;;;24.12;63.41;98718.52;105895;1253;68288;-78
2023/06/27 05:13:37;;;;;;;;;;;;;;;24.34;63.35;98721.02;105983;1253;72512;-79
2023/06/27 05:16:05;;;;;;;;;;;;;;;24.34;62.53;98722.91;105837;1253;139865;-78
2023/06/27 05:18:32;;;;;;;;;;;;;;;24.63;61.06;98722.46;105930;1253;61263;-80
2023/06/27 05:21:00;;;;;;;;;;;;;;;24.78;60.63;98724.42;105929;1254;74533;-80
2023/06/27 05:23:27;;;;;;;;;;;;;;;25.04;57.99;98723.95;105994;1253;68651;-80
2023/06/27 05:25:55;;;;;;;;;;;;;;;25.19;56.86;98719.77;105864;1256;72398;-79
2023/06/27 05:28:22;;;;;;;;;;;;;;;25.49;53.33;98718.14;105897;1256;61425;-79
2023/06/27 05:30:49;;;;;;;;;;;;;;;25.02;52.65;98719.65;106044;1254;61266;-78
2023/06/27 05:33:17;;;;;;;;;;;;;;;24.16;56.05;98714.91;105955;1254;74565;-80
2023/06/27 05:35:44;;;;;;;;;;;;;;;24.45;54.53;98715.27;106003;1259;67646;-78
2023/06/27 05:38:12;;;;;;;;;;;;;;;24.56;53.31;98714.52;105919;1254;72515;-78
2023/06/27 05:40:39;;;;;;;;;;;;;;;24.82;51.75;98717.96;105857;1257;61320;-80
2023/06/27 05:43:08;;;;;;;;;;;;;;;25.51;49.62;98724.98;105902;1258;61274;-79
2023/06/27 05:45:37;;;;;;;;;;;;;;;25.45;49.11;98727.33;105912;1254;73424;-79
2023/06/27 05:48:05;;;;;;;;;;;;;;;25.61;49.08;98731.69;105978;1254;68263;-80
2023/06/27 05:50:32;;;;;;;;;;;;;;;26.07;47.79;98734.08;105934;1257;72588;-82
2023/06/27 05:53:00;;;;;;;;;;;;;;;26.30;45.84;98737.23;105914;1254;61458;-78
2023/06/27 05:55:29;;;;;;;;;;;;;;;26.21;45.92;98731.98;105964;1258;61212;-79
2023/06/27 05:57:56;;;;;;;;;;;;;;;26.22;45.57;98731.98;106148;1251;73677;-77
2023/06/27 06:00:23;;;;;;;;;;;;;;;26.12;43.92;98732.67;106627;1256;67252;-80
2023/06/27 06:02:51;;;;;;;;;;;;;;;26.02;44.82;98730.14;106186;1256;72492;-86
2023/06/27 06:05:19;;;;;;;;;;;;;;;26.64;44.82;98729.70;105999;1257;61270;-80
2023/06/27 06:07:46;;;;;;;;;;;;;;;26.67;44.69;98729.09;106103;1256;61192;-80
2023/06/27 06:10:14;;;;;;;;;;;;;;;26.66;43.74;98729.30;106209;1257;74676;-79
2023/06/27 06:12:43;;;;;;;;;;;;;;;26.48;44.52;98723.42;106264;1257;68828;-79
2023/06/27 06:15:10;;;;;;;;;;;;;;;26.08;45.39;98718.56;105971;1251;72448;-83
2023/06/27 06:17:38;;;;;;;;;;;;;;;25.86;45.23;98719.11;106361;1256;61314;-81
2023/06/27 06:20:11;;;;;;;;;;;;;;;26.34;45.21;98717.05;106288;1251;61215;-77
2023/06/27 06:22:39;;;;;;;;;;;;;;;27.41;43.65;98723.01;106204;1252;74512;-78
2023/06/27 06:25:07;;;;;;;;;;;;;;;26.83;44.32;98715.44;106110;1257;67429;-79
2023/06/27 06:27:35;;;;;;;;;;;;;;;26.47;45.32;98712.88;105828;1260;71475;-77
2023/06/27 06:30:03;;;;;;;;;;;;;;;26.40;45.24;98712.27;105933;1253;61385;-77
2023/06/27 06:32:30;;;;;;;;;;;;;;;26.25;46.28;98712.05;106095;1253;61395;-77
2023/06/27 06:35:03;;;;;;;;;;;;;;;26.21;46.23;98713.59;105988;1253;74530;-82
2023/06/27 06:37:31;;;;;;;;;;;;;;;26.26;45.41;98709.39;106102;1253;69284;-85
2023/06/27 06:39:59;;;;;;;;;;;;;;;26.69;43.73;98705.21;105959;1253;72625;-78
2023/06/27 06:42:26;;;;;;;;;;;;;;;26.92;43.79;98701.11;105972;1258;62014;-77
2023/06/27 06:44:54;;;;;;;;;;;;;;;26.64;44.69;98696.81;105971;1253;61398;-78
2023/06/27 06:47:21;;;;;;;;;;;;;;;26.83;44.78;98704.30;106065;1253;74523;-77
2023/06/27 06:49:49;;;;;;;;;;;;;;;27.39;44.50;98710.04;105983;1257;67103;-81
2023/06/27 06:52:16;;;;;;;;;;;;;;;27.50;42.74;98713.09;106062;1254;71447;-83
2023/06/27 06:54:43;;;;;;;;;;;;;;;27.34;43.39;98707.11;106010;1258;61331;-78
2023/06/27 06:57:11;;;;;;;;;;;;;;;27.08;44.24;98708.75;106095;1253;61355;-84
2023/06/27 06:59:38;;;;;;;;;;;;;;;26.77;44.20;98704.31;106330;1253;74181;-78
2023/06/27 07:02:07;;;;;;;;;;;;;;;26.51;45.26;98702.06;109237;1253;67305;-81
2023/06/27 07:04:34;;;;;;;;;;;;;;;26.58;46.06;98704.71;108553;1253;71437;-78
2023/06/27 07:07:02;;;;;;;;;;;;;;;26.56;45.25;98701.08;106312;1252;61882;-80
2023/06/27 07:09:29;;;;;;;;;;;;;;;26.83;46.03;98702.91;106266;1254;61176;-80
2023/06/27 07:11:58;;;;;;;;;;;;;;;27.57;44.09;98703.66;106114;1257;74625;-78
2023/06/27 07:14:26;;;;;;;;;;;;;;;27.16;44.71;98699.23;106034;1259;67337;-79
2023/06/27 07:16:53;;;;;;;;;;;;;;;27.43;44.06;98702.34;105947;1254;71210;-78
2023/06/27 07:19:21;;;;;;;;;;;;;;;27.51;43.34;98699.70;106181;1253;61104;-86
2023/06/27 07:21:50;;;;;;;;;;;;;;;27.14;43.78;98699.27;106088;1252;61350;-80
2023/06/27 07:24:17;;;;;;;;;;;;;;;27.08;44.12;98694.21;106073;1253;74611;-76
2023/06/27 07:26:45;;;;;;;;;;;;;;;27.43;43.46;98697.77;106037;1253;68420;-76
2023/06/27 07:29:12;;;;;;;;;;;;;;;27.39;43.65;98694.45;106113;1257;72573;-78
2023/06/27 07:31:39;;;;;;;;;;;;;;;27.25;43.58;98693.30;105956;1257;62352;-77
2023/06/27 07:34:07;;;;;;;;;;;;;;;27.40;43.35;98694.06;105991;1253;61302;-79
2023/06/27 07:36:35;;;;;;;;;;;;;;;27.54;43.07;98686.65;105992;1253;76780;-77
2023/06/27 07:39:02;;;;;;;;;;;;;;;27.54;43.17;98679.88;106079;1253;68216;-82
2023/06/27 07:41:32;;;;;;;;;;;;;;;27.40;43.18;98678.64;106213;1253;71103;-82
2023/06/27 07:43:59;;;;;;;;;;;;;;;27.55;42.08;98683.49;106225;1253;61273;-81
2023/06/27 07:46:27;;;;;;;;;;;;;;;27.78;42.35;98682.61;105716;1253;61214;-81
2023/06/27 07:48:59;;;;;;;;;;;;;;;27.68;41.81;98684.63;106188;1253;73366;-78
2023/06/27 07:51:30;;;;;;;;;;;;;;;27.45;41.62;98682.35;106103;1253;68282;-79
2023/06/27 07:54:00;;;;;;;;;;;;;;;27.43;42.18;98680.61;105995;1257;71132;-83
2023/06/27 07:56:28;;;;;;;;;;;;;;;27.47;41.50;98677.02;105977;1253;61308;-78
2023/06/27 07:58:55;;;;;;;;;;;;;;;27.77;41.20;98677.58;106107;1253;61223;-78
2023/06/27 08:01:22;;;;;;;;;;;;;;;27.98;41.09;98676.52;106242;1255;75088;-80
2023/06/27 08:03:50;;;;;;;;;;;;;;;28.27;41.05;98673.10;106169;1253;70583;-85
2023/06/27 08:06:18;;;;;;;;;;;;;;;28.13;40.27;98672.29;106168;1253;71087;-84
2023/06/27 08:08:45;;;;;;;;;;;;;;;28.16;39.85;98672.14;106345;1257;61187;-84
2023/06/27 08:11:13;;;;;;;;;;;;;;;28.09;39.97;98675.61;106243;1253;61349;-79
2023/06/27 08:13:41;;;;;;;;;;;;;;;27.58;40.49;98666.49;106036;1252;73428;-77
2023/06/27 08:16:09;;;;;;;;;;;;;;;27.66;41.58;98655.18;106173;1253;68393;-81
2023/06/27 08:18:37;;;;;;;;;;;;;;;27.74;41.45;98654.73;106233;1259;72247;-81
2023/06/27 08:21:04;;;;;;;;;;;;;;;27.77;40.97;98655.27;106132;1259;61205;-79
2023/06/27 08:23:32;;;;;;;;;;;;;;;28.15;41.10;98656.70;106079;1253;61158;-81
2023/06/27 08:25:59;;;;;;;;;;;;;;;28.54;41.26;98659.70;106052;1259;74511;-80
2023/06/27 08:28:27;;;;;;;;;;;;;;;28.82;40.00;98660.36;106165;1257;68578;-80
2023/06/27 08:30:55;;;;;;;;;;;;;;;28.79;39.63;98663.14;106156;1253;71329;-77
2023/06/27 08:33:24;;;;;;;;;;;;;;;28.82;38.50;98662.73;106263;1256;61300;-80
2023/06/27 08:35:52;;;;;;;;;;;;;;;28.75;38.56;98662.19;106041;1258;61183;-78
2023/06/27 08:38:19;;;;;;;;;;;;;;;28.51;39.97;98657.26;106033;1252;73016;-80
2023/06/27 08:40:47;;;;;;;;;;;;;;;28.82;38.97;98654.05;106031;1257;67212;-79
2023/06/27 08:43:14;;;;;;;;;;;;;;;28.63;38.97;98655.52;105884;1253;72876;-79
2023/06/27 08:45:42;;;;;;;;;;;;;;;28.37;39.13;98657.95;106103;1253;61339;-79
2023/06/27 08:48:09;;;;;;;;;;;;;;;28.49;38.89;98651.73;105918;1253;62725;-83
2023/06/27 08:50:38;;;;;;;;;;;;;;;28.37;38.64;98651.81;105951;1253;73469;-85
2023/06/27 08:53:07;;;;;;;;;;;;;;;28.10;39.40;98650.63;105923;1252;68247;-83
2023/06/27 08:55:38;;;;;;;;;;;;;;;28.31;39.54;98650.23;106209;1253;71582;-80
2023/06/27 08:58:08;;;;;;;;;;;;;;;28.33;40.23;98649.44;106198;1253;61186;-80
2023/06/27 09:00:35;;;;;;;;;;;;;;;28.23;40.59;98653.94;106205;1253;61302;-76
2023/06/27 09:03:03;;;;;;;;;;;;;;;28.82;39.37;98656.89;105943;1259;74467;-77
2023/06/27 09:05:34;;;;;;;;;;;;;;;29.07;38.33;98658.18;105782;1261;67321;-76
2023/06/27 09:08:01;;;;;;;;;;;;;;;29.05;38.62;98660.63;105963;1259;71400;-82
2023/06/27 09:10:29;;;;;;;;;;;;;;;29.08;37.84;98659.44;105913;1254;62379;-85
2023/06/27 09:12:56;;;;;;;;;;;;;;;29.31;37.40;98650.44;105937;1254;61340;-80
2023/06/27 09:15:24;;;;;;;;;;;;;;;29.04;37.47;98647.06;106513;1257;74532;-77
2023/06/27 09:17:52;;;;;;;;;;;;;;;29.15;38.48;98645.23;105851;1254;68205;-80
2023/06/27 09:20:20;;;;;;;;;;;;;;;29.02;38.84;98643.59;105888;1258;72310;-78
2023/06/27 09:22:48;;;;;;;;;;;;;;;29.00;38.26;98648.32;105990;1254;61311;-79
2023/06/27 09:25:16;;;;;;;;;;;;;;;29.19;38.61;98646.23;105825;1262;62573;-79
2023/06/27 09:27:43;;;;;;;;;;;;;;;29.61;38.62;98645.09;105935;1259;74512;-84
2023/06/27 09:30:14;;;;;;;;;;;;;;;29.45;37.56;98648.26;106052;1259;68435;-78
2023/06/27 09:32:58;;;;;;;;;;;;;;;28.87;38.59;98644.48;106144;1254;71506;-82
2023/06/27 09:35:26;;;;;;;;;;;;;;;29.22;38.81;98642.41;105975;1254;61320;-80
2023/06/27 09:38:03;;;;;;;;;;;;;;;26.85;42.57;98632.80;105933;1259;61173;-79
2023/06/27 09:40:37;;;;;;;;;;;;;;;26.13;44.56;98625.20;106074;1254;74514;-88
2023/06/27 09:43:08;;;;;;;;;;;;;;;26.27;44.38;98628.22;106242;1254;67863;-87
2023/06/27 09:45:36;;;;;;;;;;;;;;;26.11;43.51;98626.84;106118;1254;72606;-80
2023/06/27 09:48:08;;;;;;;;;;;;;;;25.98;44.90;98623.66;106019;1254;61254;-83
2023/06/27 09:50:35;;;;;;;;;;;;;;;25.98;43.99;98621.70;106001;1254;61275;-76
2023/06/27 09:53:03;;;;;;;;;;;;;;;25.92;44.50;98621.98;106022;1254;74485;-80
2023/06/27 09:55:30;;;;;;;;;;;;;;;25.70;44.71;98623.45;105933;1259;68648;-78
2023/06/27 09:57:58;;;;;;;;;;;;;;;26.05;45.24;98620.58;105900;1258;71448;-79
2023/06/27 10:00:28;;;;;;;;;;;;;;;26.52;44.65;98624.71;106004;1259;61283;-79
2023/06/27 10:02:56;;;;;;;;;;;;;;;26.81;43.67;98629.86;106093;1259;61230;-83
2023/06/27 10:05:25;;;;;;;;;;;;;;;26.60;43.30;98627.54;106067;1259;74533;-79
2023/06/27 10:07:57;;;;;;;;;;;;;;;26.65;43.69;98633.08;106054;1253;68649;-81
2023/06/27 10:10:25;;;;;;;;;;;;;;;26.70;43.38;98632.55;106205;1257;71357;-82
2023/06/27 10:12:52;;;;;;;;;;;;;;;26.84;43.04;98631.84;108763;1253;61276;-80
2023/06/27 10:15:20;;;;;;;;;;;;;;;27.50;40.89;98638.80;109594;1253;58583;-81
2023/06/27 10:17:47;;;;;;;;;;;;;;;28.31;39.74;98636.82;106361;1253;73387;-81
2023/06/27 10:20:15;;;;;;;;;;;;;;;28.75;39.22;98630.39;106095;1253;68215;-79
2023/06/27 10:22:43;;;;;;;;;;;;;;;28.91;39.05;98633.52;105923;1254;71620;-82
2023/06/27 10:25:10;;;;;;;;;;;;;;;29.20;39.06;98629.71;106110;1258;61263;-80
2023/06/27 10:27:38;;;;;;;;;;;;;;;27.87;41.38;98625.98;105996;1254;61262;-79
2023/06/27 10:30:15;;;;;;;;;;;;;;;27.36;41.50;98624.08;106136;1253;74627;-87
2023/06/27 10:32:46;;;;;;;;;;;;;;;26.95;42.51;98615.14;106563;1253;68864;-80
2023/06/27 10:35:24;;;;;;;;;;;;;;;27.07;42.84;98607.33;106345;1259;72225;-78
2023/06/27 10:38:06;;;;;;;;;;;;;;;28.39;40.27;98616.00;106150;1253;61305;-77
2023/06/27 10:40:52;;;;;;;;;;;;;;;28.05;39.96;98611.97;106223;1258;62240;-77
2023/06/27 10:43:39;;;;;;;;;;;;;;;26.87;42.24;98606.76;106024;1253;73768;-79
2023/06/27 10:46:10;;;;;;;;;;;;;;;26.82;43.58;98603.84;106136;1256;67585;-82
2023/06/27 10:48:57;;;;;;;;;;;;;;;26.82;43.00;98602.11;107164;1254;73833;-77
2023/06/27 10:51:44;;;;;;;;;;;;;;;27.30;42.47;98602.46;106080;1256;62297;-86
2023/06/27 10:54:12;;;;;;;;;;;;;;;27.47;41.90;98603.63;106161;1254;61294;-83
2023/06/27 10:56:47;;;;;;;;;;;;;;;27.42;42.27;98606.38;106084;1253;73975;-79
2023/06/27 10:59:19;;;;;;;;;;;;;;;27.51;41.67;98606.95;106186;1253;68607;-79
2023/06/27 11:01:58;;;;;;;;;;;;;;;27.03;41.39;98604.56;106259;1254;71368;-86
2023/06/27 11:04:26;;;;;;;;;;;;;;;26.91;42.88;98605.18;106066;1259;61333;-79
2023/06/27 11:07:00;;;;;;;;;;;;;;;26.84;43.31;98604.63;105974;1253;62448;-77
2023/06/27 11:09:29;;;;;;;;;;;;;;;26.83;42.46;98603.52;106091;1257;74483;-78
2023/06/27 11:12:15;;;;;;;;;;;;;;;26.75;42.51;98600.73;106119;1253;68757;-77
2023/06/27 11:14:44;;;;;;;;;;;;;;;26.48;42.66;98600.32;106049;1259;72226;-76
2023/06/27 11:17:12;;;;;;;;;;;;;;;26.51;43.64;98601.58;105892;1257;61416;-76
2023/06/27 11:19:39;;;;;;;;;;;;;;;26.57;43.06;98599.81;106070;1256;61414;-76
2023/06/27 11:22:07;;;;;;;;;;;;;;;26.17;43.93;98597.10;106049;1257;73537;-77
2023/06/27 11:24:36;;;;;;;;;;;;;;;26.37;44.19;98594.89;105986;1253;67549;-78
2023/06/27 11:27:06;;;;;;;;;;;;;;;26.39;44.24;98592.07;106122;1259;72520;-79
2023/06/27 11:29:34;;;;;;;;;;;;;;;26.00;44.20;98592.59;105994;1259;61276;-81
2023/06/27 11:32:02;;;;;;;;;;;;;;;25.70;44.94;98587.33;105850;1259;61176;-79
2023/06/27 11:34:29;;;;;;;;;;;;;;;25.78;46.72;98588.52;106230;1255;74647;-77
2023/06/27 11:36:58;;;;;;;;;;;;;;;25.72;45.59;98593.48;106443;1261;67125;-80
2023/06/27 11:39:25;;;;;;;;;;;;;;;25.62;46.65;98592.84;106799;1258;71542;-83
2023/06/27 11:41:54;;;;;;;;;;;;;;;25.38;47.06;98589.21;106843;1254;61333;-79
2023/06/27 11:44:29;;;;;;;;;;;;;;;25.45;47.39;98587.64;106344;1258;61935;-79
2023/06/27 11:46:57;;;;;;;;;;;;;;;25.47;46.44;98584.75;106094;1262;76794;-79
2023/06/27 11:49:25;;;;;;;;;;;;;;;25.25;47.07;98579.97;105993;1258;67450;-80
2023/06/27 11:51:56;;;;;;;;;;;;;;;25.44;46.53;98579.30;106070;1258;72529;-76
2023/06/27 11:54:23;;;;;;;;;;;;;;;25.49;46.55;98575.59;106168;1254;61378;-79
2023/06/27 11:56:51;;;;;;;;;;;;;;;25.55;47.44;98576.36;105991;1258;61275;-78
2023/06/27 11:59:28;;;;;;;;;;;;;;;25.56;48.14;98573.63;106176;1255;74540;-76
2023/06/27 12:01:57;;;;;;;;;;;;;;;25.37;47.92;98571.39;105787;1261;67245;-78
2023/06/27 12:04:25;;;;;;;;;;;;;;;25.90;46.78;98572.30;105936;1259;72781;-78
2023/06/27 12:06:52;;;;;;;;;;;;;;;26.14;45.82;98565.58;105998;1259;61277;-79
2023/06/27 12:09:20;;;;;;;;;;;;;;;25.26;47.71;98566.23;105935;1254;61349;-77
2023/06/27 12:11:50;;;;;;;;;;;;;;;25.21;47.12;98566.77;105936;1258;74559;-76
2023/06/27 12:14:21;;;;;;;;;;;;;;;24.73;48.16;98569.98;105845;1259;70896;-75
2023/06/27 12:16:49;;;;;;;;;;;;;;;24.81;49.01;98572.27;105865;1259;72996;-80
2023/06/27 12:19:17;;;;;;;;;;;;;;;24.91;50.25;98569.90;105697;1259;62341;-86
2023/06/27 12:21:45;;;;;;;;;;;;;;;24.94;50.56;98564.28;105798;1254;62569;-82
2023/06/27 12:24:12;;;;;;;;;;;;;;;24.89;49.73;98567.13;105872;1259;74522;-80
2023/06/27 12:26:40;;;;;;;;;;;;;;;24.79;48.73;98567.09;105881;1254;68333;-77
2023/06/27 12:29:08;;;;;;;;;;;;;;;24.79;49.57;98565.59;106046;1259;72213;-77
2023/06/27 12:31:35;;;;;;;;;;;;;;;24.70;49.99;98560.77;106034;1255;61216;-78
2023/06/27 12:34:03;;;;;;;;;;;;;;;24.67;49.93;98559.96;106144;1254;61238;-77
2023/06/27 12:36:32;;;;;;;;;;;;;;;24.73;49.47;98554.86;106086;1255;73384;-75
2023/06/27 12:39:00;;;;;;;;;;;;;;;24.87;49.74;98550.02;106115;1255;68414;-77
2023/06/27 12:41:29;;;;;;;;;;;;;;;24.88;50.04;98549.46;106090;1254;72540;-76